sensor_id;sensor_type;location;lat;lon;timestamp;pressure;altitude;pressure_sealevel;temperature;humidity
69784;BME280;57054;51.978;4.498;2022-08-21T00:00:50;101722.09;;;17.73;73.37
69784;BME280;57054;51.978;4.498;2022-08-21T00:03:16;101717.75;;;17.72;73.21
69784;BME280;57054;51.978;4.498;2022-08-21T00:05:46;101716.88;;;17.72;73.21
69784;BME280;57054;51.978;4.498;2022-08-21T00:08:12;101718.66;;;17.71;73.37
69784;BME280;57054;51.978;4.498;2022-08-21T00:10:39;101723.97;;;17.71;73.20
69784;BME280;57054;51.978;4.498;2022-08-21T00:13:05;101718.75;;;17.70;73.22
69784;BME280;57054;51.978;4.498;2022-08-21T00:15:33;101713.44;;;17.70;73.40
69784;BME280;57054;51.978;4.498;2022-08-21T00:17:58;101711.75;;;17.69;72.97
69784;BME280;57054;51.978;4.498;2022-08-21T00:20:24;101708.25;;;17.68;73.21
69784;BME280;57054;51.978;4.498;2022-08-21T00:22:50;101715.34;;;17.68;73.29
69784;BME280;57054;51.978;4.498;2022-08-21T00:25:16;101711.75;;;17.69;73.39
69784;BME280;57054;51.978;4.498;2022-08-21T00:27:42;101708.25;;;17.68;73.71
69784;BME280;57054;51.978;4.498;2022-08-21T00:30:09;101710.13;;;17.66;73.41
69784;BME280;57054;51.978;4.498;2022-08-21T00:32:38;101703.13;;;17.65;73.41
69784;BME280;57054;51.978;4.498;2022-08-21T00:35:07;101704.94;;;17.64;73.55
69784;BME280;57054;51.978;4.498;2022-08-21T00:37:33;101712.88;;;17.64;73.40
69784;BME280;57054;51.978;4.498;2022-08-21T00:39:58;101708.50;;;17.63;73.51
69784;BME280;57054;51.978;4.498;2022-08-21T00:42:24;101698.84;;;17.62;73.50
69784;BME280;57054;51.978;4.498;2022-08-21T00:44:50;101706.78;;;17.62;73.32
69784;BME280;57054;51.978;4.498;2022-08-21T00:47:17;101700.66;;;17.62;73.46
69784;BME280;57054;51.978;4.498;2022-08-21T00:49:43;101695.34;;;17.62;73.40
69784;BME280;57054;51.978;4.498;2022-08-21T00:52:19;101702.47;;;17.61;73.26
69784;BME280;57054;51.978;4.498;2022-08-21T00:54:46;101708.69;;;17.60;73.29
69784;BME280;57054;51.978;4.498;2022-08-21T00:57:20;101697.31;;;17.58;72.71
69784;BME280;57054;51.978;4.498;2022-08-21T00:59:48;101695.53;;;17.59;72.74
69784;BME280;57054;51.978;4.498;2022-08-21T01:02:34;101700.81;;;17.59;73.22
69784;BME280;57054;51.978;4.498;2022-08-21T01:05:00;101703.47;;;17.59;73.44
69784;BME280;57054;51.978;4.498;2022-08-21T01:07:25;101696.47;;;17.58;73.71
69784;BME280;57054;51.978;4.498;2022-08-21T01:09:51;101699.22;;;17.56;73.86
69784;BME280;57054;51.978;4.498;2022-08-21T01:12:17;101698.38;;;17.56;74.24
69784;BME280;57054;51.978;4.498;2022-08-21T01:14:43;101701.00;;;17.56;74.23
69784;BME280;57054;51.978;4.498;2022-08-21T01:17:11;101694.00;;;17.55;74.36
69784;BME280;57054;51.978;4.498;2022-08-21T01:19:39;101690.59;;;17.53;74.09
69784;BME280;57054;51.978;4.498;2022-08-21T01:22:04;101690.59;;;17.53;74.33
69784;BME280;57054;51.978;4.498;2022-08-21T01:24:30;101696.81;;;17.52;74.50
69784;BME280;57054;51.978;4.498;2022-08-21T01:26:58;101699.44;;;17.52;74.64
69784;BME280;57054;51.978;4.498;2022-08-21T01:29:39;101690.75;;;17.50;74.88
69784;BME280;57054;51.978;4.498;2022-08-21T01:32:13;101694.34;;;17.49;74.83
69784;BME280;57054;51.978;4.498;2022-08-21T01:34:45;101689.97;;;17.48;74.79
69784;BME280;57054;51.978;4.498;2022-08-21T01:37:11;101684.69;;;17.48;74.79
69784;BME280;57054;51.978;4.498;2022-08-21T01:39:37;101689.22;;;17.45;75.15
69784;BME280;57054;51.978;4.498;2022-08-21T01:42:03;101688.38;;;17.45;75.09
69784;BME280;57054;51.978;4.498;2022-08-21T01:44:29;101678.72;;;17.44;75.02
69784;BME280;57054;51.978;4.498;2022-08-21T01:46:57;101687.59;;;17.43;75.43
69784;BME280;57054;51.978;4.498;2022-08-21T01:49:22;101678.78;;;17.42;75.62
69784;BME280;57054;51.978;4.498;2022-08-21T01:51:48;101688.53;;;17.42;75.41
69784;BME280;57054;51.978;4.498;2022-08-21T01:54:13;101678.03;;;17.40;75.68
69784;BME280;57054;51.978;4.498;2022-08-21T01:56:42;101674.63;;;17.38;75.77
69784;BME280;57054;51.978;4.498;2022-08-21T01:59:09;101677.25;;;17.38;75.94
69784;BME280;57054;51.978;4.498;2022-08-21T02:01:35;101672.13;;;17.35;75.73
69784;BME280;57054;51.978;4.498;2022-08-21T02:04:00;101672.13;;;17.35;76.01
69784;BME280;57054;51.978;4.498;2022-08-21T02:06:27;101673.09;;;17.34;75.97
69784;BME280;57054;51.978;4.498;2022-08-21T02:08:53;101663.41;;;17.33;76.14
69784;BME280;57054;51.978;4.498;2022-08-21T02:11:19;101665.31;;;17.31;76.06
69784;BME280;57054;51.978;4.498;2022-08-21T02:13:44;101664.47;;;17.31;76.22
69784;BME280;57054;51.978;4.498;2022-08-21T02:16:10;101661.81;;;17.31;76.20
69784;BME280;57054;51.978;4.498;2022-08-21T02:18:36;101661.06;;;17.29;76.27
69784;BME280;57054;51.978;4.498;2022-08-21T02:21:03;101658.41;;;17.29;76.39
69784;BME280;57054;51.978;4.498;2022-08-21T02:23:29;101657.63;;;17.26;76.48
69784;BME280;57054;51.978;4.498;2022-08-21T02:25:57;101657.63;;;17.26;76.19
69784;BME280;57054;51.978;4.498;2022-08-21T02:28:23;101661.13;;;17.27;76.08
69784;BME280;57054;51.978;4.498;2022-08-21T02:30:48;101653.28;;;17.25;76.07
69784;BME280;57054;51.978;4.498;2022-08-21T02:33:15;101659.50;;;17.24;76.22
69784;BME280;57054;51.978;4.498;2022-08-21T02:35:42;101663.94;;;17.24;76.36
69784;BME280;57054;51.978;4.498;2022-08-21T02:38:11;101663.09;;;17.23;76.14
69784;BME280;57054;51.978;4.498;2022-08-21T02:40:38;101660.44;;;17.23;76.10
69784;BME280;57054;51.978;4.498;2022-08-21T02:43:05;101651.75;;;17.21;75.73
69784;BME280;57054;51.978;4.498;2022-08-21T02:45:31;101660.53;;;17.22;75.87
69784;BME280;57054;51.978;4.498;2022-08-21T02:48:00;101654.38;;;17.21;75.72
69784;BME280;57054;51.978;4.498;2022-08-21T02:50:27;101647.38;;;17.20;75.73
69784;BME280;57054;51.978;4.498;2022-08-21T02:52:53;101651.81;;;17.20;75.65
69784;BME280;57054;51.978;4.498;2022-08-21T02:55:20;101655.41;;;17.19;75.17
69784;BME280;57054;51.978;4.498;2022-08-21T02:57:47;101651.06;;;17.18;75.40
69784;BME280;57054;51.978;4.498;2022-08-21T03:00:13;101655.50;;;17.17;75.23
69784;BME280;57054;51.978;4.498;2022-08-21T03:02:39;101649.34;;;17.17;75.35
69784;BME280;57054;51.978;4.498;2022-08-21T03:05:06;101650.28;;;17.16;75.67
69784;BME280;57054;51.978;4.498;2022-08-21T03:07:32;101646.69;;;17.17;75.42
69784;BME280;57054;51.978;4.498;2022-08-21T03:09:58;101649.34;;;17.17;75.75
69784;BME280;57054;51.978;4.498;2022-08-21T03:12:24;101642.34;;;17.16;76.07
69784;BME280;57054;51.978;4.498;2022-08-21T03:14:49;101632.69;;;17.15;76.08
69784;BME280;57054;51.978;4.498;2022-08-21T03:17:15;101629.19;;;17.14;76.02
69784;BME280;57054;51.978;4.498;2022-08-21T03:19:40;101637.13;;;17.14;76.04
69784;BME280;57054;51.978;4.498;2022-08-21T03:22:06;101635.41;;;17.13;76.07
69784;BME280;57054;51.978;4.498;2022-08-21T03:24:31;101638.06;;;17.13;75.98
69784;BME280;57054;51.978;4.498;2022-08-21T03:26:57;101633.72;;;17.12;76.28
69784;BME280;57054;51.978;4.498;2022-08-21T03:29:22;101631.94;;;17.13;76.35
69784;BME280;57054;51.978;4.498;2022-08-21T03:31:48;101622.25;;;17.12;76.23
69784;BME280;57054;51.978;4.498;2022-08-21T03:34:13;101619.72;;;17.10;75.94
69784;BME280;57054;51.978;4.498;2022-08-21T03:36:39;101618.84;;;17.10;76.16
69784;BME280;57054;51.978;4.498;2022-08-21T03:39:04;101619.81;;;17.08;75.75
69784;BME280;57054;51.978;4.498;2022-08-21T03:41:30;101622.38;;;17.10;76.17
69784;BME280;57054;51.978;4.498;2022-08-21T03:43:56;101613.56;;;17.10;75.91
69784;BME280;57054;51.978;4.498;2022-08-21T03:46:21;101619.81;;;17.08;76.23
69784;BME280;57054;51.978;4.498;2022-08-21T03:48:47;101622.53;;;17.07;75.95
69784;BME280;57054;51.978;4.498;2022-08-21T03:51:13;101619.03;;;17.06;76.12
69784;BME280;57054;51.978;4.498;2022-08-21T03:53:38;101616.41;;;17.06;75.89
69784;BME280;57054;51.978;4.498;2022-08-21T03:56:04;101615.53;;;17.06;75.89
69784;BME280;57054;51.978;4.498;2022-08-21T03:58:30;101621.69;;;17.06;75.73
69784;BME280;57054;51.978;4.498;2022-08-21T04:00:59;101614.69;;;17.05;75.84
69784;BME280;57054;51.978;4.498;2022-08-21T04:03:26;101616.47;;;17.05;76.13
69784;BME280;57054;51.978;4.498;2022-08-21T04:05:51;101620.91;;;17.04;76.12
69784;BME280;57054;51.978;4.498;2022-08-21T04:08:17;101621.84;;;17.03;76.38
69784;BME280;57054;51.978;4.498;2022-08-21T04:10:48;101624.50;;;17.03;76.55
69784;BME280;57054;51.978;4.498;2022-08-21T04:13:14;101627.16;;;17.03;76.31
69784;BME280;57054;51.978;4.498;2022-08-21T04:15:40;101622.78;;;17.02;76.69
69784;BME280;57054;51.978;4.498;2022-08-21T04:18:06;101621.09;;;17.01;76.80
69784;BME280;57054;51.978;4.498;2022-08-21T04:20:34;101625.53;;;17.01;76.83
69784;BME280;57054;51.978;4.498;2022-08-21T04:23:00;101629.94;;;17.00;76.60
69784;BME280;57054;51.978;4.498;2022-08-21T04:25:26;101629.09;;;17.00;76.73
69784;BME280;57054;51.978;4.498;2022-08-21T04:27:52;101634.41;;;17.00;76.59
69784;BME280;57054;51.978;4.498;2022-08-21T04:30:18;101630.91;;;16.99;76.63
69784;BME280;57054;51.978;4.498;2022-08-21T04:32:46;101639.78;;;16.98;76.68
69784;BME280;57054;51.978;4.498;2022-08-21T04:35:13;101637.97;;;16.99;76.45
69784;BME280;57054;51.978;4.498;2022-08-21T04:37:39;101638.94;;;16.98;76.44
69784;BME280;57054;51.978;4.498;2022-08-21T04:40:05;101644.22;;;16.98;76.35
69784;BME280;57054;51.978;4.498;2022-08-21T04:42:31;101645.16;;;16.97;76.31
69784;BME280;57054;51.978;4.498;2022-08-21T04:44:58;101642.50;;;16.97;76.32
69784;BME280;57054;51.978;4.498;2022-08-21T04:47:23;101639.94;;;16.95;75.93
69784;BME280;57054;51.978;4.498;2022-08-21T04:49:49;101653.16;;;16.95;75.81
69784;BME280;57054;51.978;4.498;2022-08-21T04:52:21;101653.16;;;16.95;75.75
69784;BME280;57054;51.978;4.498;2022-08-21T04:54:48;101650.50;;;16.95;75.86
69784;BME280;57054;51.978;4.498;2022-08-21T04:57:16;101661.09;;;16.95;75.70
69784;BME280;57054;51.978;4.498;2022-08-21T04:59:48;101660.25;;;16.95;75.33
69784;BME280;57054;51.978;4.498;2022-08-21T05:02:14;101664.69;;;16.94;75.57
69784;BME280;57054;51.978;4.498;2022-08-21T05:04:49;101664.78;;;16.93;75.59
69784;BME280;57054;51.978;4.498;2022-08-21T05:07:19;101670.91;;;16.93;75.47
69784;BME280;57054;51.978;4.498;2022-08-21T05:09:45;101662.13;;;16.93;75.84
69784;BME280;57054;51.978;4.498;2022-08-21T05:12:11;101663.06;;;16.92;75.74
69784;BME280;57054;51.978;4.498;2022-08-21T05:14:37;101659.56;;;16.91;75.46
69784;BME280;57054;51.978;4.498;2022-08-21T05:17:03;101659.47;;;16.93;75.24
69784;BME280;57054;51.978;4.498;2022-08-21T05:19:29;101656.84;;;16.93;75.05
69784;BME280;57054;51.978;4.498;2022-08-21T05:21:55;101653.34;;;16.92;75.35
69784;BME280;57054;51.978;4.498;2022-08-21T05:24:21;101659.47;;;16.93;75.42
69784;BME280;57054;51.978;4.498;2022-08-21T05:26:46;101665.63;;;16.93;75.41
69784;BME280;57054;51.978;4.498;2022-08-21T05:29:13;101661.22;;;16.94;75.45
69784;BME280;57054;51.978;4.498;2022-08-21T05:31:40;101661.22;;;16.94;75.82
69784;BME280;57054;51.978;4.498;2022-08-21T05:34:06;101659.41;;;16.94;75.98
69784;BME280;57054;51.978;4.498;2022-08-21T05:36:31;101659.47;;;16.93;76.00
69784;BME280;57054;51.978;4.498;2022-08-21T05:38:57;101667.41;;;16.93;75.25
69784;BME280;57054;51.978;4.498;2022-08-21T05:41:23;101662.13;;;16.93;74.91
69784;BME280;57054;51.978;4.498;2022-08-21T05:43:49;101675.34;;;16.93;74.75
69784;BME280;57054;51.978;4.498;2022-08-21T05:46:14;101662.13;;;16.93;74.14
69784;BME280;57054;51.978;4.498;2022-08-21T05:48:40;101663.84;;;16.94;74.69
69784;BME280;57054;51.978;4.498;2022-08-21T05:51:10;101662.06;;;16.94;75.40
69784;BME280;57054;51.978;4.498;2022-08-21T05:53:37;101661.97;;;16.96;75.55
69784;BME280;57054;51.978;4.498;2022-08-21T05:56:03;101660.19;;;16.96;75.84
69784;BME280;57054;51.978;4.498;2022-08-21T05:58:30;101661.09;;;16.95;76.02
69784;BME280;57054;51.978;4.498;2022-08-21T06:00:56;101666.31;;;16.97;75.64
69784;BME280;57054;51.978;4.498;2022-08-21T06:03:25;101665.47;;;16.96;75.96
69784;BME280;57054;51.978;4.498;2022-08-21T06:05:51;101665.47;;;16.96;76.07
69784;BME280;57054;51.978;4.498;2022-08-21T06:08:18;101665.38;;;16.98;76.06
69784;BME280;57054;51.978;4.498;2022-08-21T06:10:45;101669.84;;;16.97;75.50
69784;BME280;57054;51.978;4.498;2022-08-21T06:13:11;101671.53;;;16.98;75.66
69784;BME280;57054;51.978;4.498;2022-08-21T06:15:37;101671.53;;;16.98;75.79
69784;BME280;57054;51.978;4.498;2022-08-21T06:18:02;101674.94;;;17.00;75.64
69784;BME280;57054;51.978;4.498;2022-08-21T06:20:28;101656.50;;;16.99;74.92
69784;BME280;57054;51.978;4.498;2022-08-21T06:22:53;101660.00;;;16.99;75.22
69784;BME280;57054;51.978;4.498;2022-08-21T06:25:19;101667.88;;;17.01;75.03
69784;BME280;57054;51.978;4.498;2022-08-21T06:27:45;101659.06;;;17.00;74.96
69784;BME280;57054;51.978;4.498;2022-08-21T06:30:11;101656.34;;;17.02;75.28
69784;BME280;57054;51.978;4.498;2022-08-21T06:32:37;101661.63;;;17.02;75.42
69784;BME280;57054;51.978;4.498;2022-08-21T06:35:03;101652.84;;;17.01;75.68
69784;BME280;57054;51.978;4.498;2022-08-21T06:37:29;101652.84;;;17.01;75.97
69784;BME280;57054;51.978;4.498;2022-08-21T06:39:55;101658.13;;;17.01;75.76
69784;BME280;57054;51.978;4.498;2022-08-21T06:42:20;101651.81;;;17.04;75.55
69784;BME280;57054;51.978;4.498;2022-08-21T06:44:45;101650.97;;;17.03;75.52
69784;BME280;57054;51.978;4.498;2022-08-21T06:47:11;101647.28;;;17.06;75.33
69784;BME280;57054;51.978;4.498;2022-08-21T06:49:36;101653.44;;;17.06;75.74
69784;BME280;57054;51.978;4.498;2022-08-21T06:52:02;101649.00;;;17.07;76.20
69784;BME280;57054;51.978;4.498;2022-08-21T06:54:28;101652.41;;;17.09;76.24
69784;BME280;57054;51.978;4.498;2022-08-21T06:56:53;101649.69;;;17.11;76.57
69784;BME280;57054;51.978;4.498;2022-08-21T06:59:19;101648.72;;;17.12;76.21
69784;BME280;57054;51.978;4.498;2022-08-21T07:01:44;101659.31;;;17.12;75.38
69784;BME280;57054;51.978;4.498;2022-08-21T07:04:10;101657.56;;;17.12;75.37
69784;BME280;57054;51.978;4.498;2022-08-21T07:06:35;101652.19;;;17.14;76.03
69784;BME280;57054;51.978;4.498;2022-08-21T07:09:01;101656.50;;;17.15;76.19
69784;BME280;57054;51.978;4.498;2022-08-21T07:11:27;101654.72;;;17.15;75.89
69784;BME280;57054;51.978;4.498;2022-08-21T07:13:53;101663.34;;;17.19;76.44
69784;BME280;57054;51.978;4.498;2022-08-21T07:16:20;101659.00;;;17.18;76.01
69784;BME280;57054;51.978;4.498;2022-08-21T07:18:46;101662.41;;;17.20;75.16
69784;BME280;57054;51.978;4.498;2022-08-21T07:21:12;101670.28;;;17.21;75.27
69784;BME280;57054;51.978;4.498;2022-08-21T07:23:40;101663.09;;;17.23;75.83
69784;BME280;57054;51.978;4.498;2022-08-21T07:26:07;101669.06;;;17.27;76.46
69784;BME280;57054;51.978;4.498;2022-08-21T07:28:33;101660.19;;;17.28;76.38
69784;BME280;57054;51.978;4.498;2022-08-21T07:31:00;101656.53;;;17.31;76.70
69784;BME280;57054;51.978;4.498;2022-08-21T07:33:28;101658.13;;;17.33;77.11
69784;BME280;57054;51.978;4.498;2022-08-21T07:35:54;101658.88;;;17.35;77.22
69784;BME280;57054;51.978;4.498;2022-08-21T07:38:20;101656.09;;;17.38;77.80
69784;BME280;57054;51.978;4.498;2022-08-21T07:40:47;101659.50;;;17.40;77.43
69784;BME280;57054;51.978;4.498;2022-08-21T07:43:14;101662.91;;;17.42;77.37
69784;BME280;57054;51.978;4.498;2022-08-21T07:45:42;101661.69;;;17.48;80.52
69784;BME280;57054;51.978;4.498;2022-08-21T07:48:07;101645.66;;;17.51;79.66
69784;BME280;57054;51.978;4.498;2022-08-21T07:50:33;101657.75;;;17.55;79.74
69784;BME280;57054;51.978;4.498;2022-08-21T07:52:58;101654.09;;;17.58;79.34
69784;BME280;57054;51.978;4.498;2022-08-21T07:55:24;101652.22;;;17.60;78.95
69784;BME280;57054;51.978;4.498;2022-08-21T07:57:50;101653.75;;;17.64;78.64
69784;BME280;57054;51.978;4.498;2022-08-21T08:00:18;101656.13;;;17.69;79.05
69784;BME280;57054;51.978;4.498;2022-08-21T08:02:46;101654.94;;;17.74;79.67
69784;BME280;57054;51.978;4.498;2022-08-21T08:05:14;101670.53;;;17.79;79.94
69784;BME280;57054;51.978;4.498;2022-08-21T08:07:40;101666.78;;;17.83;80.15
69784;BME280;57054;51.978;4.498;2022-08-21T08:10:06;101665.69;;;17.87;80.64
69784;BME280;57054;51.978;4.498;2022-08-21T08:12:34;101654.94;;;17.90;80.22
69784;BME280;57054;51.978;4.498;2022-08-21T08:15:00;101664.47;;;17.93;79.44
69784;BME280;57054;51.978;4.498;2022-08-21T08:17:26;101656.44;;;17.94;78.27
69784;BME280;57054;51.978;4.498;2022-08-21T08:19:52;101651.72;;;17.99;79.77
69784;BME280;57054;51.978;4.498;2022-08-21T08:22:21;101655.81;;;18.05;79.01
69784;BME280;57054;51.978;4.498;2022-08-21T08:24:49;101643.91;;;18.12;80.91
69784;BME280;57054;51.978;4.498;2022-08-21T08:27:15;101645.50;;;18.15;79.30
69784;BME280;57054;51.978;4.498;2022-08-21T08:29:41;101645.34;;;18.18;78.57
69784;BME280;57054;51.978;4.498;2022-08-21T08:32:07;101648.81;;;18.18;78.11
69784;BME280;57054;51.978;4.498;2022-08-21T08:34:36;101655.84;;;18.19;78.09
69784;BME280;57054;51.978;4.498;2022-08-21T08:37:07;101648.75;;;18.20;78.22
69784;BME280;57054;51.978;4.498;2022-08-21T08:39:33;101650.34;;;18.22;78.08
69784;BME280;57054;51.978;4.498;2022-08-21T08:42:07;101649.41;;;18.23;78.12
69784;BME280;57054;51.978;4.498;2022-08-21T08:44:36;101643.16;;;18.25;78.30
69784;BME280;57054;51.978;4.498;2022-08-21T08:47:02;101635.97;;;18.27;78.66
69784;BME280;57054;51.978;4.498;2022-08-21T08:52:15;101640.91;;;18.33;79.44
69784;BME280;57054;51.978;4.498;2022-08-21T08:54:51;101635.41;;;18.36;79.47
69784;BME280;57054;51.978;4.498;2022-08-21T08:57:22;101640.41;;;18.40;79.17
69784;BME280;57054;51.978;4.498;2022-08-21T08:59:51;101639.31;;;18.45;79.10
69784;BME280;57054;51.978;4.498;2022-08-21T09:02:18;101639.00;;;18.49;79.70
69784;BME280;57054;51.978;4.498;2022-08-21T09:04:45;101632.47;;;18.55;80.50
69784;BME280;57054;51.978;4.498;2022-08-21T09:12:38;101636.63;;;18.73;78.87
69784;BME280;57054;51.978;4.498;2022-08-21T09:15:39;101636.25;;;18.79;78.35
69784;BME280;57054;51.978;4.498;2022-08-21T09:23:31;101653.63;;;18.99;77.99
69784;BME280;57054;51.978;4.498;2022-08-21T09:26:21;101646.09;;;19.06;77.23
69784;BME280;57054;51.978;4.498;2022-08-21T09:28:56;101644.09;;;19.10;77.51
69784;BME280;57054;51.978;4.498;2022-08-21T09:31:31;101647.31;;;19.15;77.14
69784;BME280;57054;51.978;4.498;2022-08-21T09:34:03;101640.97;;;19.17;77.01
69784;BME280;57054;51.978;4.498;2022-08-21T09:36:41;101639.16;;;19.18;76.59
69784;BME280;57054;51.978;4.498;2022-08-21T09:39:10;101644.47;;;19.18;76.34
69784;BME280;57054;51.978;4.498;2022-08-21T09:41:37;101649.78;;;19.18;76.05
69784;BME280;57054;51.978;4.498;2022-08-21T09:44:04;101647.88;;;19.20;75.82
69784;BME280;57054;51.978;4.498;2022-08-21T09:46:30;101653.84;;;19.24;75.22
69784;BME280;57054;51.978;4.498;2022-08-21T09:48:58;101640.38;;;19.27;74.89
69784;BME280;57054;51.978;4.498;2022-08-21T09:51:27;101646.25;;;19.32;74.98
69784;BME280;57054;51.978;4.498;2022-08-21T09:56:34;101655.63;;;19.37;75.17
69784;BME280;57054;51.978;4.498;2022-08-21T09:59:31;101647.84;;;19.34;75.13
69784;BME280;57054;51.978;4.498;2022-08-21T10:01:58;101651.44;;;19.33;75.39
69784;BME280;57054;51.978;4.498;2022-08-21T10:04:32;101640.06;;;19.31;75.41
69784;BME280;57054;51.978;4.498;2022-08-21T10:09:33;101639.31;;;19.29;75.24
69784;BME280;57054;51.978;4.498;2022-08-21T10:12:10;101643.78;;;19.29;75.61
69784;BME280;57054;51.978;4.498;2022-08-21T10:14:52;101642.94;;;19.28;75.26
69784;BME280;57054;51.978;4.498;2022-08-21T10:17:35;101632.31;;;19.28;75.05
69784;BME280;57054;51.978;4.498;2022-08-21T10:20:12;101638.56;;;19.27;75.10
69784;BME280;57054;51.978;4.498;2022-08-21T10:25:25;101638.56;;;19.27;75.35
69784;BME280;57054;51.978;4.498;2022-08-21T10:31:00;101639.41;;;19.28;74.73
69784;BME280;57054;51.978;4.498;2022-08-21T10:33:36;101638.38;;;19.30;74.80
69784;BME280;57054;51.978;4.498;2022-08-21T10:39:02;101631.50;;;19.41;74.83
69784;BME280;57054;51.978;4.498;2022-08-21T10:49:38;101637.91;;;19.51;73.75
69784;BME280;57054;51.978;4.498;2022-08-21T10:55:08;101629.00;;;19.52;73.73
69784;BME280;57054;51.978;4.498;2022-08-21T11:00:10;101639.63;;;19.52;73.59
69784;BME280;57054;51.978;4.498;2022-08-21T11:02:42;101633.44;;;19.51;73.91
69784;BME280;57054;51.978;4.498;2022-08-21T11:07:55;101638.66;;;19.53;73.90
69784;BME280;57054;51.978;4.498;2022-08-21T11:12:53;101649.84;;;19.58;73.86
69784;BME280;57054;51.978;4.498;2022-08-21T11:15:31;101653.16;;;19.62;73.49
69784;BME280;57054;51.978;4.498;2022-08-21T11:20:59;101651.25;;;19.64;73.20
69784;BME280;57054;51.978;4.498;2022-08-21T11:23:40;101645.19;;;19.62;72.71
69784;BME280;57054;51.978;4.498;2022-08-21T11:26:15;101648.78;;;19.61;72.92
69784;BME280;57054;51.978;4.498;2022-08-21T11:29:00;101656.75;;;19.61;73.23
69784;BME280;57054;51.978;4.498;2022-08-21T11:43:25;101660.56;;;19.56;72.04
69784;BME280;57054;51.978;4.498;2022-08-21T11:45:58;101658.75;;;19.57;72.25
69784;BME280;57054;51.978;4.498;2022-08-21T11:48:48;101658.75;;;19.57;72.48
69784;BME280;57054;51.978;4.498;2022-08-21T11:51:29;101665.78;;;19.58;72.39
69784;BME280;57054;51.978;4.498;2022-08-21T11:54:07;101654.19;;;19.59;72.43
69784;BME280;57054;51.978;4.498;2022-08-21T11:56:49;101661.31;;;19.59;72.45
69784;BME280;57054;51.978;4.498;2022-08-21T11:59:20;101655.16;;;19.58;71.65
69784;BME280;57054;51.978;4.498;2022-08-21T12:01:48;101663.13;;;19.58;71.30
69784;BME280;57054;51.978;4.498;2022-08-21T12:04:28;101657.63;;;19.61;71.29
69784;BME280;57054;51.978;4.498;2022-08-21T12:06:54;101654.00;;;19.62;71.49
69784;BME280;57054;51.978;4.498;2022-08-21T12:12:21;101652.97;;;19.65;71.09
69784;BME280;57054;51.978;4.498;2022-08-21T12:14:49;101658.06;;;19.68;70.32
69784;BME280;57054;51.978;4.498;2022-08-21T12:17:21;101661.47;;;19.70;70.76
69784;BME280;57054;51.978;4.498;2022-08-21T12:20:02;101658.69;;;19.71;70.19
69784;BME280;57054;51.978;4.498;2022-08-21T12:22:40;101664.00;;;19.71;68.71
69784;BME280;57054;51.978;4.498;2022-08-21T12:25:11;101666.69;;;19.71;68.77
69784;BME280;57054;51.978;4.498;2022-08-21T12:27:51;101669.28;;;19.73;70.00
69784;BME280;57054;51.978;4.498;2022-08-21T12:30:44;101662.03;;;19.75;70.04
69784;BME280;57054;51.978;4.498;2022-08-21T12:33:34;101666.09;;;19.81;70.56
69784;BME280;57054;51.978;4.498;2022-08-21T12:36:23;101664.97;;;19.85;68.87
69784;BME280;57054;51.978;4.498;2022-08-21T12:39:00;101668.78;;;19.93;69.59
69784;BME280;57054;51.978;4.498;2022-08-21T12:42:00;101673.81;;;19.98;70.22
69784;BME280;57054;51.978;4.498;2022-08-21T12:44:32;101673.59;;;20.01;69.81
69784;BME280;57054;51.978;4.498;2022-08-21T12:47:04;101672.53;;;20.04;70.05
69784;BME280;57054;51.978;4.498;2022-08-21T12:49:43;101668.69;;;20.08;70.35
69784;BME280;57054;51.978;4.498;2022-08-21T12:52:43;101666.69;;;20.11;70.25
69784;BME280;57054;51.978;4.498;2022-08-21T12:55:15;101672.75;;;20.13;70.07
69784;BME280;57054;51.978;4.498;2022-08-21T12:57:50;101677.03;;;20.16;70.31
69784;BME280;57054;51.978;4.498;2022-08-21T13:00:22;101674.28;;;20.18;70.59
69784;BME280;57054;51.978;4.498;2022-08-21T13:02:49;101675.84;;;20.20;70.08
69784;BME280;57054;51.978;4.498;2022-08-21T13:05:23;101668.72;;;20.21;70.69
69784;BME280;57054;51.978;4.498;2022-08-21T13:07:52;101675.75;;;20.22;71.00
69784;BME280;57054;51.978;4.498;2022-08-21T13:10:31;101673.00;;;20.23;70.01
69784;BME280;57054;51.978;4.498;2022-08-21T13:13:01;101676.50;;;20.24;69.02
69784;BME280;57054;51.978;4.498;2022-08-21T13:15:33;101676.19;;;20.28;69.55
69784;BME280;57054;51.978;4.498;2022-08-21T13:18:00;101681.19;;;20.33;71.00
69784;BME280;57054;51.978;4.498;2022-08-21T13:20:35;101685.47;;;20.36;70.77
69784;BME280;57054;51.978;4.498;2022-08-21T13:23:08;101682.56;;;20.39;70.74
69784;BME280;57054;51.978;4.498;2022-08-21T13:25:41;101684.28;;;20.40;70.28
69784;BME280;57054;51.978;4.498;2022-08-21T13:28:07;101679.81;;;20.40;70.16
69784;BME280;57054;51.978;4.498;2022-08-21T13:30:34;101676.94;;;20.43;70.48
69784;BME280;57054;51.978;4.498;2022-08-21T13:33:02;101677.69;;;20.45;70.15
69784;BME280;57054;51.978;4.498;2022-08-21T13:35:36;101679.38;;;20.46;69.94
69784;BME280;57054;51.978;4.498;2022-08-21T13:38:10;101681.94;;;20.48;69.86
69784;BME280;57054;51.978;4.498;2022-08-21T13:40:49;101679.16;;;20.49;70.24
69784;BME280;57054;51.978;4.498;2022-08-21T13:43:17;101680.88;;;20.50;69.84
69784;BME280;57054;51.978;4.498;2022-08-21T13:45:51;101680.00;;;20.50;69.06
69784;BME280;57054;51.978;4.498;2022-08-21T13:48:17;101684.50;;;20.49;68.76
69784;BME280;57054;51.978;4.498;2022-08-21T13:50:44;101688.75;;;20.52;69.23
69784;BME280;57054;51.978;4.498;2022-08-21T13:56:22;101685.22;;;20.51;69.49
69784;BME280;57054;51.978;4.498;2022-08-21T13:58:47;101690.56;;;20.51;68.18
69784;BME280;57054;51.978;4.498;2022-08-21T14:01:23;101688.88;;;20.50;67.40
69784;BME280;57054;51.978;4.498;2022-08-21T14:03:52;101687.06;;;20.51;67.88
69784;BME280;57054;51.978;4.498;2022-08-21T14:06:22;101683.66;;;20.49;67.40